sensor_id;sensor_type;location;lat;lon;timestamp;P1;durP1;ratioP1;P2;durP2;ratioP2
58756;SDS011;44527;47.460;19.016;2022-11-18T00:00:25;42.20;;;19.17;;
58756;SDS011;44527;47.460;19.016;2022-11-18T00:03:27;38.25;;;18.12;;
58756;SDS011;44527;47.460;19.016;2022-11-18T00:06:30;36.42;;;18.42;;
58756;SDS011;44527;47.460;19.016;2022-11-18T00:09:32;36.53;;;18.55;;
58756;SDS011;44527;47.460;19.016;2022-11-18T00:12:34;38.83;;;18.15;;
58756;SDS011;44527;47.460;19.016;2022-11-18T00:16:02;38.47;;;16.37;;
58756;SDS011;44527;47.460;19.016;2022-11-18T00:19:06;39.30;;;18.45;;
58756;SDS011;44527;47.460;19.016;2022-11-18T00:22:10;36.47;;;16.00;;
58756;SDS011;44527;47.460;19.016;2022-11-18T00:25:13;33.92;;;16.40;;
58756;SDS011;44527;47.460;19.016;2022-11-18T00:28:16;34.63;;;16.73;;
58756;SDS011;44527;47.460;19.016;2022-11-18T00:31:18;38.25;;;17.42;;
58756;SDS011;44527;47.460;19.016;2022-11-18T00:34:20;33.70;;;17.83;;
58756;SDS011;44527;47.460;19.016;2022-11-18T00:37:22;36.45;;;17.00;;
58756;SDS011;44527;47.460;19.016;2022-11-18T00:40:25;39.92;;;17.80;;
58756;SDS011;44527;47.460;19.016;2022-11-18T00:43:27;35.63;;;16.42;;
58756;SDS011;44527;47.460;19.016;2022-11-18T00:46:31;32.33;;;16.20;;
58756;SDS011;44527;47.460;19.016;2022-11-18T00:49:33;31.73;;;15.48;;
58756;SDS011;44527;47.460;19.016;2022-11-18T00:52:36;34.22;;;16.42;;
58756;SDS011;44527;47.460;19.016;2022-11-18T00:55:38;37.58;;;15.95;;
58756;SDS011;44527;47.460;19.016;2022-11-18T00:58:40;28.65;;;14.68;;
58756;SDS011;44527;47.460;19.016;2022-11-18T01:01:42;33.72;;;16.10;;
58756;SDS011;44527;47.460;19.016;2022-11-18T01:04:45;33.38;;;16.35;;
58756;SDS011;44527;47.460;19.016;2022-11-18T01:07:48;37.47;;;15.82;;
58756;SDS011;44527;47.460;19.016;2022-11-18T01:10:50;36.95;;;17.17;;
58756;SDS011;44527;47.460;19.016;2022-11-18T01:13:53;34.58;;;17.67;;
58756;SDS011;44527;47.460;19.016;2022-11-18T01:16:56;33.33;;;17.73;;
58756;SDS011;44527;47.460;19.016;2022-11-18T01:19:59;33.38;;;17.23;;
58756;SDS011;44527;47.460;19.016;2022-11-18T01:23:02;34.85;;;16.75;;
58756;SDS011;44527;47.460;19.016;2022-11-18T01:26:05;34.50;;;16.15;;
58756;SDS011;44527;47.460;19.016;2022-11-18T01:29:09;36.25;;;16.73;;
58756;SDS011;44527;47.460;19.016;2022-11-18T01:32:11;40.05;;;17.67;;
58756;SDS011;44527;47.460;19.016;2022-11-18T01:35:40;33.35;;;17.02;;
58756;SDS011;44527;47.460;19.016;2022-11-18T01:38:43;36.30;;;16.37;;
58756;SDS011;44527;47.460;19.016;2022-11-18T01:41:46;33.80;;;16.37;;
58756;SDS011;44527;47.460;19.016;2022-11-18T01:44:56;36.13;;;15.20;;
58756;SDS011;44527;47.460;19.016;2022-11-18T01:48:14;33.90;;;14.98;;
58756;SDS011;44527;47.460;19.016;2022-11-18T01:51:28;35.78;;;14.87;;
58756;SDS011;44527;47.460;19.016;2022-11-18T01:54:36;33.88;;;15.98;;
58756;SDS011;44527;47.460;19.016;2022-11-18T01:57:43;32.53;;;15.13;;
58756;SDS011;44527;47.460;19.016;2022-11-18T02:00:51;31.70;;;15.05;;
58756;SDS011;44527;47.460;19.016;2022-11-18T02:03:54;31.17;;;15.38;;
58756;SDS011;44527;47.460;19.016;2022-11-18T02:06:57;34.53;;;16.20;;
58756;SDS011;44527;47.460;19.016;2022-11-18T02:10:01;34.83;;;15.48;;
58756;SDS011;44527;47.460;19.016;2022-11-18T02:13:06;35.88;;;16.48;;
58756;SDS011;44527;47.460;19.016;2022-11-18T02:16:15;33.97;;;15.77;;
58756;SDS011;44527;47.460;19.016;2022-11-18T02:22:59;27.80;;;14.63;;
58756;SDS011;44527;47.460;19.016;2022-11-18T02:29:24;29.02;;;14.15;;
58756;SDS011;44527;47.460;19.016;2022-11-18T02:32:31;31.37;;;14.50;;
58756;SDS011;44527;47.460;19.016;2022-11-18T02:35:40;30.80;;;14.33;;
58756;SDS011;44527;47.460;19.016;2022-11-18T02:38:47;28.75;;;14.20;;
58756;SDS011;44527;47.460;19.016;2022-11-18T02:41:55;32.42;;;14.38;;
58756;SDS011;44527;47.460;19.016;2022-11-18T02:45:11;26.23;;;14.35;;
58756;SDS011;44527;47.460;19.016;2022-11-18T02:48:17;33.53;;;15.90;;
58756;SDS011;44527;47.460;19.016;2022-11-18T02:51:27;29.85;;;14.93;;
58756;SDS011;44527;47.460;19.016;2022-11-18T02:54:32;28.75;;;13.73;;
58756;SDS011;44527;47.460;19.016;2022-11-18T02:57:39;27.92;;;14.60;;
58756;SDS011;44527;47.460;19.016;2022-11-18T03:00:43;33.03;;;15.60;;
58756;SDS011;44527;47.460;19.016;2022-11-18T03:03:46;28.70;;;14.35;;
58756;SDS011;44527;47.460;19.016;2022-11-18T03:06:55;32.97;;;14.27;;
58756;SDS011;44527;47.460;19.016;2022-11-18T03:10:12;29.75;;;14.63;;
58756;SDS011;44527;47.460;19.016;2022-11-18T03:13:20;30.75;;;15.55;;
58756;SDS011;44527;47.460;19.016;2022-11-18T03:16:31;35.78;;;16.50;;
58756;SDS011;44527;47.460;19.016;2022-11-18T03:22:46;33.30;;;16.08;;
58756;SDS011;44527;47.460;19.016;2022-11-18T03:29:35;30.48;;;14.82;;
58756;SDS011;44527;47.460;19.016;2022-11-18T03:32:48;29.67;;;13.80;;
58756;SDS011;44527;47.460;19.016;2022-11-18T03:35:57;32.72;;;15.20;;
58756;SDS011;44527;47.460;19.016;2022-11-18T03:39:05;29.00;;;14.02;;
58756;SDS011;44527;47.460;19.016;2022-11-18T03:45:25;31.40;;;14.27;;
58756;SDS011;44527;47.460;19.016;2022-11-18T03:48:35;31.62;;;15.90;;
58756;SDS011;44527;47.460;19.016;2022-11-18T03:54:46;38.92;;;16.45;;
58756;SDS011;44527;47.460;19.016;2022-11-18T03:58:06;39.75;;;17.83;;
58756;SDS011;44527;47.460;19.016;2022-11-18T04:01:20;39.05;;;17.08;;
58756;SDS011;44527;47.460;19.016;2022-11-18T04:04:46;44.88;;;18.40;;
58756;SDS011;44527;47.460;19.016;2022-11-18T04:11:07;38.40;;;17.67;;
58756;SDS011;44527;47.460;19.016;2022-11-18T04:14:39;37.70;;;15.77;;
58756;SDS011;44527;47.460;19.016;2022-11-18T04:17:44;34.47;;;15.80;;
58756;SDS011;44527;47.460;19.016;2022-11-18T04:20:46;34.83;;;15.68;;
58756;SDS011;44527;47.460;19.016;2022-11-18T04:23:49;33.30;;;16.33;;
58756;SDS011;44527;47.460;19.016;2022-11-18T04:26:51;31.75;;;16.02;;
58756;SDS011;44527;47.460;19.016;2022-11-18T04:29:54;34.13;;;16.52;;
58756;SDS011;44527;47.460;19.016;2022-11-18T04:32:56;33.88;;;15.88;;
58756;SDS011;44527;47.460;19.016;2022-11-18T04:35:59;30.20;;;15.30;;
58756;SDS011;44527;47.460;19.016;2022-11-18T04:39:01;40.78;;;15.80;;
58756;SDS011;44527;47.460;19.016;2022-11-18T04:42:04;36.20;;;17.00;;
58756;SDS011;44527;47.460;19.016;2022-11-18T04:45:06;43.53;;;17.65;;
58756;SDS011;44527;47.460;19.016;2022-11-18T04:48:10;35.28;;;15.40;;
58756;SDS011;44527;47.460;19.016;2022-11-18T04:51:12;35.35;;;16.87;;
58756;SDS011;44527;47.460;19.016;2022-11-18T04:54:15;41.67;;;17.12;;
58756;SDS011;44527;47.460;19.016;2022-11-18T04:57:19;37.17;;;17.33;;
58756;SDS011;44527;47.460;19.016;2022-11-18T05:00:24;41.22;;;17.17;;
58756;SDS011;44527;47.460;19.016;2022-11-18T05:03:27;39.40;;;17.85;;
58756;SDS011;44527;47.460;19.016;2022-11-18T05:06:30;39.83;;;18.40;;
58756;SDS011;44527;47.460;19.016;2022-11-18T05:09:33;41.15;;;17.98;;
58756;SDS011;44527;47.460;19.016;2022-11-18T05:12:35;42.42;;;19.05;;
58756;SDS011;44527;47.460;19.016;2022-11-18T05:15:50;50.20;;;18.58;;
58756;SDS011;44527;47.460;19.016;2022-11-18T05:18:52;39.05;;;17.55;;
58756;SDS011;44527;47.460;19.016;2022-11-18T05:21:54;45.20;;;19.80;;
58756;SDS011;44527;47.460;19.016;2022-11-18T05:24:57;50.50;;;18.95;;
58756;SDS011;44527;47.460;19.016;2022-11-18T05:27:59;45.12;;;18.98;;
58756;SDS011;44527;47.460;19.016;2022-11-18T05:31:05;47.42;;;19.45;;
58756;SDS011;44527;47.460;19.016;2022-11-18T05:34:08;43.42;;;17.83;;
58756;SDS011;44527;47.460;19.016;2022-11-18T05:37:11;53.67;;;21.87;;
58756;SDS011;44527;47.460;19.016;2022-11-18T05:40:15;45.92;;;20.60;;
58756;SDS011;44527;47.460;19.016;2022-11-18T05:43:18;61.03;;;21.60;;
58756;SDS011;44527;47.460;19.016;2022-11-18T05:46:22;66.57;;;24.17;;
58756;SDS011;44527;47.460;19.016;2022-11-18T05:49:25;68.70;;;23.52;;
58756;SDS011;44527;47.460;19.016;2022-11-18T05:52:28;69.03;;;23.73;;
58756;SDS011;44527;47.460;19.016;2022-11-18T05:55:32;61.10;;;25.48;;
58756;SDS011;44527;47.460;19.016;2022-11-18T05:58:40;59.80;;;24.35;;
58756;SDS011;44527;47.460;19.016;2022-11-18T06:02:18;67.90;;;26.15;;
58756;SDS011;44527;47.460;19.016;2022-11-18T06:05:17;57.17;;;22.87;;
58756;SDS011;44527;47.460;19.016;2022-11-18T06:08:23;59.20;;;22.52;;
58756;SDS011;44527;47.460;19.016;2022-11-18T06:11:30;51.00;;;21.35;;
58756;SDS011;44527;47.460;19.016;2022-11-18T06:14:39;49.60;;;21.27;;
58756;SDS011;44527;47.460;19.016;2022-11-18T06:17:50;63.22;;;21.80;;
58756;SDS011;44527;47.460;19.016;2022-11-18T06:21:00;51.03;;;21.73;;
58756;SDS011;44527;47.460;19.016;2022-11-18T06:24:05;50.12;;;21.00;;
58756;SDS011;44527;47.460;19.016;2022-11-18T06:27:10;56.35;;;20.65;;
58756;SDS011;44527;47.460;19.016;2022-11-18T06:30:14;56.42;;;20.55;;
58756;SDS011;44527;47.460;19.016;2022-11-18T06:33:17;54.58;;;21.02;;
58756;SDS011;44527;47.460;19.016;2022-11-18T06:36:20;50.08;;;20.58;;
58756;SDS011;44527;47.460;19.016;2022-11-18T06:39:22;45.05;;;20.77;;
58756;SDS011;44527;47.460;19.016;2022-11-18T06:42:28;46.63;;;19.55;;
58756;SDS011;44527;47.460;19.016;2022-11-18T06:45:49;43.53;;;18.15;;
58756;SDS011;44527;47.460;19.016;2022-11-18T06:49:10;43.80;;;17.62;;
58756;SDS011;44527;47.460;19.016;2022-11-18T06:52:17;42.33;;;19.08;;
58756;SDS011;44527;47.460;19.016;2022-11-18T06:55:20;47.62;;;18.85;;
58756;SDS011;44527;47.460;19.016;2022-11-18T06:58:22;47.55;;;18.20;;
58756;SDS011;44527;47.460;19.016;2022-11-18T07:01:26;48.70;;;19.30;;
58756;SDS011;44527;47.460;19.016;2022-11-18T07:04:30;47.03;;;18.33;;
58756;SDS011;44527;47.460;19.016;2022-11-18T07:07:34;44.30;;;17.67;;
58756;SDS011;44527;47.460;19.016;2022-11-18T07:10:50;51.22;;;19.10;;
58756;SDS011;44527;47.460;19.016;2022-11-18T07:13:53;50.42;;;19.02;;
58756;SDS011;44527;47.460;19.016;2022-11-18T07:16:55;50.58;;;19.05;;
58756;SDS011;44527;47.460;19.016;2022-11-18T07:19:58;43.80;;;17.83;;
58756;SDS011;44527;47.460;19.016;2022-11-18T07:23:00;46.92;;;19.60;;
58756;SDS011;44527;47.460;19.016;2022-11-18T07:26:03;51.33;;;18.83;;
58756;SDS011;44527;47.460;19.016;2022-11-18T07:29:08;39.95;;;17.15;;
58756;SDS011;44527;47.460;19.016;2022-11-18T07:32:11;44.38;;;15.90;;
58756;SDS011;44527;47.460;19.016;2022-11-18T07:35:14;49.97;;;18.05;;
58756;SDS011;44527;47.460;19.016;2022-11-18T07:38:18;39.13;;;17.05;;
58756;SDS011;44527;47.460;19.016;2022-11-18T07:41:21;56.40;;;19.15;;
58756;SDS011;44527;47.460;19.016;2022-11-18T07:44:28;45.42;;;17.48;;
58756;SDS011;44527;47.460;19.016;2022-11-18T07:47:32;49.50;;;17.90;;
58756;SDS011;44527;47.460;19.016;2022-11-18T07:50:35;41.00;;;16.33;;
58756;SDS011;44527;47.460;19.016;2022-11-18T07:53:37;57.90;;;19.60;;
58756;SDS011;44527;47.460;19.016;2022-11-18T07:56:40;43.40;;;17.40;;
58756;SDS011;44527;47.460;19.016;2022-11-18T07:59:42;34.95;;;15.60;;
58756;SDS011;44527;47.460;19.016;2022-11-18T08:02:48;35.53;;;15.40;;
58756;SDS011;44527;47.460;19.016;2022-11-18T08:05:53;38.55;;;15.73;;
58756;SDS011;44527;47.460;19.016;2022-11-18T08:09:05;35.10;;;15.30;;
58756;SDS011;44527;47.460;19.016;2022-11-18T08:12:09;34.88;;;15.65;;
58756;SDS011;44527;47.460;19.016;2022-11-18T08:15:11;37.50;;;14.82;;
58756;SDS011;44527;47.460;19.016;2022-11-18T08:18:14;44.10;;;16.40;;
58756;SDS011;44527;47.460;19.016;2022-11-18T08:21:17;36.08;;;14.13;;
58756;SDS011;44527;47.460;19.016;2022-11-18T08:24:21;39.05;;;16.02;;
58756;SDS011;44527;47.460;19.016;2022-11-18T08:27:23;33.03;;;14.77;;
58756;SDS011;44527;47.460;19.016;2022-11-18T08:30:25;33.92;;;15.13;;
58756;SDS011;44527;47.460;19.016;2022-11-18T08:33:27;47.65;;;16.60;;
58756;SDS011;44527;47.460;19.016;2022-11-18T08:36:32;34.85;;;15.45;;
58756;SDS011;44527;47.460;19.016;2022-11-18T08:39:37;38.97;;;14.13;;
58756;SDS011;44527;47.460;19.016;2022-11-18T08:42:39;42.95;;;16.00;;
58756;SDS011;44527;47.460;19.016;2022-11-18T08:45:42;48.28;;;16.92;;
58756;SDS011;44527;47.460;19.016;2022-11-18T08:48:45;47.65;;;16.98;;
58756;SDS011;44527;47.460;19.016;2022-11-18T08:51:47;43.13;;;14.45;;
58756;SDS011;44527;47.460;19.016;2022-11-18T08:54:49;45.92;;;15.48;;
58756;SDS011;44527;47.460;19.016;2022-11-18T08:57:52;49.38;;;17.55;;
58756;SDS011;44527;47.460;19.016;2022-11-18T09:00:54;46.17;;;16.80;;
58756;SDS011;44527;47.460;19.016;2022-11-18T09:03:56;35.22;;;14.68;;
58756;SDS011;44527;47.460;19.016;2022-11-18T09:06:59;36.78;;;14.65;;
58756;SDS011;44527;47.460;19.016;2022-11-18T09:10:01;37.35;;;14.57;;
58756;SDS011;44527;47.460;19.016;2022-11-18T09:13:03;32.30;;;13.88;;
58756;SDS011;44527;47.460;19.016;2022-11-18T09:16:27;31.62;;;12.73;;
58756;SDS011;44527;47.460;19.016;2022-11-18T09:19:32;23.65;;;11.00;;
58756;SDS011;44527;47.460;19.016;2022-11-18T09:22:50;27.65;;;12.50;;
58756;SDS011;44527;47.460;19.016;2022-11-18T09:26:11;24.30;;;12.40;;
58756;SDS011;44527;47.460;19.016;2022-11-18T09:29:19;34.72;;;12.73;;
58756;SDS011;44527;47.460;19.016;2022-11-18T09:32:27;29.75;;;12.48;;
58756;SDS011;44527;47.460;19.016;2022-11-18T09:35:29;35.45;;;13.73;;
58756;SDS011;44527;47.460;19.016;2022-11-18T09:38:31;29.35;;;12.48;;
58756;SDS011;44527;47.460;19.016;2022-11-18T09:48:14;31.52;;;13.05;;
58756;SDS011;44527;47.460;19.016;2022-11-18T09:51:21;29.15;;;13.73;;
58756;SDS011;44527;47.460;19.016;2022-11-18T09:54:38;29.45;;;12.93;;
58756;SDS011;44527;47.460;19.016;2022-11-18T09:57:43;30.67;;;12.30;;
58756;SDS011;44527;47.460;19.016;2022-11-18T10:00:49;25.70;;;11.85;;
58756;SDS011;44527;47.460;19.016;2022-11-18T10:03:52;26.12;;;12.25;;
58756;SDS011;44527;47.460;19.016;2022-11-18T10:06:55;27.37;;;11.85;;
58756;SDS011;44527;47.460;19.016;2022-11-18T10:09:58;35.13;;;13.05;;
58756;SDS011;44527;47.460;19.016;2022-11-18T10:13:15;24.42;;;12.15;;
58756;SDS011;44527;47.460;19.016;2022-11-18T10:16:41;26.70;;;10.75;;
58756;SDS011;44527;47.460;19.016;2022-11-18T10:23:32;34.45;;;12.32;;
58756;SDS011;44527;47.460;19.016;2022-11-18T10:26:42;40.55;;;13.80;;
58756;SDS011;44527;47.460;19.016;2022-11-18T10:29:47;34.85;;;14.07;;
58756;SDS011;44527;47.460;19.016;2022-11-18T10:33:16;29.48;;;13.65;;
58756;SDS011;44527;47.460;19.016;2022-11-18T10:36:28;27.85;;;13.05;;
58756;SDS011;44527;47.460;19.016;2022-11-18T10:39:32;35.60;;;13.43;;
58756;SDS011;44527;47.460;19.016;2022-11-18T10:42:41;35.00;;;14.10;;
58756;SDS011;44527;47.460;19.016;2022-11-18T10:45:46;33.83;;;13.82;;
58756;SDS011;44527;47.460;19.016;2022-11-18T10:49:12;33.42;;;13.30;;
58756;SDS011;44527;47.460;19.016;2022-11-18T10:52:12;32.42;;;12.25;;
58756;SDS011;44527;47.460;19.016;2022-11-18T10:58:18;31.25;;;14.38;;
58756;SDS011;44527;47.460;19.016;2022-11-18T11:01:29;30.15;;;12.68;;
58756;SDS011;44527;47.460;19.016;2022-11-18T11:04:31;36.60;;;13.70;;
58756;SDS011;44527;47.460;19.016;2022-11-18T11:07:35;34.60;;;15.18;;
58756;SDS011;44527;47.460;19.016;2022-11-18T11:10:39;30.40;;;13.62;;
58756;SDS011;44527;47.460;19.016;2022-11-18T11:13:42;30.25;;;13.45;;
58756;SDS011;44527;47.460;19.016;2022-11-18T11:16:47;27.52;;;12.40;;
58756;SDS011;44527;47.460;19.016;2022-11-18T11:20:19;33.22;;;13.57;;
58756;SDS011;44527;47.460;19.016;2022-11-18T11:23:22;31.65;;;13.85;;
58756;SDS011;44527;47.460;19.016;2022-11-18T11:30:19;31.67;;;13.70;;
58756;SDS011;44527;47.460;19.016;2022-11-18T11:33:28;28.05;;;13.02;;
58756;SDS011;44527;47.460;19.016;2022-11-18T11:43:33;24.83;;;11.60;;
58756;SDS011;44527;47.460;19.016;2022-11-18T12:01:04;21.75;;;10.00;;
58756;SDS011;44527;47.460;19.016;2022-11-18T12:08:35;20.95;;;9.02;;
58756;SDS011;44527;47.460;19.016;2022-11-18T12:14:45;18.02;;;9.05;;
58756;SDS011;44527;47.460;19.016;2022-11-18T12:24:43;18.17;;;8.82;;
58756;SDS011;44527;47.460;19.016;2022-11-18T12:30:48;18.87;;;7.85;;
58756;SDS011;44527;47.460;19.016;2022-11-18T12:47:02;11.85;;;6.50;;
58756;SDS011;44527;47.460;19.016;2022-11-18T12:50:13;13.18;;;6.80;;
58756;SDS011;44527;47.460;19.016;2022-11-18T12:53:31;14.30;;;7.15;;
58756;SDS011;44527;47.460;19.016;2022-11-18T12:56:35;10.43;;;6.32;;
58756;SDS011;44527;47.460;19.016;2022-11-18T12:59:38;11.82;;;5.80;;
58756;SDS011;44527;47.460;19.016;2022-11-18T13:02:49;10.65;;;6.15;;
58756;SDS011;44527;47.460;19.016;2022-11-18T13:06:27;13.82;;;6.47;;
58756;SDS011;44527;47.460;19.016;2022-11-18T13:09:30;9.82;;;5.35;;
58756;SDS011;44527;47.460;19.016;2022-11-18T13:12:35;10.90;;;5.87;;
58756;SDS011;44527;47.460;19.016;2022-11-18T13:15:41;11.02;;;5.82;;
58756;SDS011;44527;47.460;19.016;2022-11-18T13:19:03;10.82;;;5.93;;
58756;SDS011;44527;47.460;19.016;2022-11-18T13:22:15;11.00;;;6.03;;
58756;SDS011;44527;47.460;19.016;2022-11-18T13:25:38;12.20;;;6.12;;
58756;SDS011;44527;47.460;19.016;2022-11-18T13:28:58;9.23;;;6.00;;
58756;SDS011;44527;47.460;19.016;2022-11-18T13:32:10;12.43;;;5.80;;
58756;SDS011;44527;47.460;19.016;2022-11-18T13:38:29;10.55;;;5.05;;
58756;SDS011;44527;47.460;19.016;2022-11-18T13:42:24;10.43;;;5.45;;
58756;SDS011;44527;47.460;19.016;2022-11-18T14:16:30;13.10;;;6.85;;
58756;SDS011;44527;47.460;19.016;2022-11-18T14:19:34;10.45;;;6.00;;
58756;SDS011;44527;47.460;19.016;2022-11-18T14:22:40;12.50;;;6.05;;
58756;SDS011;44527;47.460;19.016;2022-11-18T14:25:44;8.70;;;5.05;;
58756;SDS011;44527;47.460;19.016;2022-11-18T14:28:54;13.27;;;5.70;;
58756;SDS011;44527;47.460;19.016;2022-11-18T14:32:03;14.18;;;6.57;;
58756;SDS011;44527;47.460;19.016;2022-11-18T14:35:11;13.15;;;6.62;;
58756;SDS011;44527;47.460;19.016;2022-11-18T14:38:18;15.00;;;7.37;;
58756;SDS011;44527;47.460;19.016;2022-11-18T14:41:46;13.77;;;7.93;;
58756;SDS011;44527;47.460;19.016;2022-11-18T14:44:49;14.65;;;8.10;;
58756;SDS011;44527;47.460;19.016;2022-11-18T14:47:51;12.13;;;7.37;;
58756;SDS011;44527;47.460;19.016;2022-11-18T14:50:54;17.35;;;8.43;;
58756;SDS011;44527;47.460;19.016;2022-11-18T14:53:56;19.55;;;8.38;;
58756;SDS011;44527;47.460;19.016;2022-11-18T14:57:01;16.60;;;7.90;;
58756;SDS011;44527;47.460;19.016;2022-11-18T15:00:06;19.98;;;8.23;;
58756;SDS011;44527;47.460;19.016;2022-11-18T15:03:14;19.25;;;9.00;;
58756;SDS011;44527;47.460;19.016;2022-11-18T15:06:19;19.10;;;8.68;;
58756;SDS011;44527;47.460;19.016;2022-11-18T15:09:23;36.67;;;9.27;;
58756;SDS011;44527;47.460;19.016;2022-11-18T15:12:26;17.12;;;9.02;;
58756;SDS011;44527;47.460;19.016;2022-11-18T15:15:29;18.20;;;9.00;;
58756;SDS011;44527;47.460;19.016;2022-11-18T15:18:32;16.48;;;8.77;;
58756;SDS011;44527;47.460;19.016;2022-11-18T15:21:35;18.65;;;8.93;;
58756;SDS011;44527;47.460;19.016;2022-11-18T15:24:37;20.25;;;9.80;;
58756;SDS011;44527;47.460;19.016;2022-11-18T15:27:39;21.45;;;9.95;;
58756;SDS011;44527;47.460;19.016;2022-11-18T15:30:41;17.02;;;9.27;;
58756;SDS011;44527;47.460;19.016;2022-11-18T15:33:45;19.20;;;9.55;;
58756;SDS011;44527;47.460;19.016;2022-11-18T15:36:53;22.48;;;10.43;;
58756;SDS011;44527;47.460;19.016;2022-11-18T15:41:25;18.27;;;9.73;;
58756;SDS011;44527;47.460;19.016;2022-11-18T15:45:09;22.13;;;11.03;;
58756;SDS011;44527;47.460;19.016;2022-11-18T15:49:44;20.50;;;10.25;;
58756;SDS011;44527;47.460;19.016;2022-11-18T15:53:29;18.95;;;10.45;;
58756;SDS011;44527;47.460;19.016;2022-11-18T15:57:37;21.15;;;10.30;;
58756;SDS011;44527;47.460;19.016;2022-11-18T16:01:33;25.30;;;11.12;;
58756;SDS011;44527;47.460;19.016;2022-11-18T16:05:37;26.67;;;12.05;;
58756;SDS011;44527;47.460;19.016;2022-11-18T16:09:22;21.20;;;10.52;;
58756;SDS011;44527;47.460;19.016;2022-11-18T16:13:10;25.48;;;12.02;;
58756;SDS011;44527;47.460;19.016;2022-11-18T16:17:10;22.65;;;11.48;;
58756;SDS011;44527;47.460;19.016;2022-11-18T16:21:00;23.15;;;11.77;;
58756;SDS011;44527;47.460;19.016;2022-11-18T16:24:35;22.37;;;11.45;;
58756;SDS011;44527;47.460;19.016;2022-11-18T16:28:39;27.70;;;12.70;;
58756;SDS011;44527;47.460;19.016;2022-11-18T16:32:11;23.80;;;12.93;;
58756;SDS011;44527;47.460;19.016;2022-11-18T16:36:10;25.37;;;12.88;;
58756;SDS011;44527;47.460;19.016;2022-11-18T16:39:47;25.58;;;12.50;;
58756;SDS011;44527;47.460;19.016;2022-11-18T16:43:26;27.25;;;13.23;;
58756;SDS011;44527;47.460;19.016;2022-11-18T16:47:18;30.85;;;13.00;;
58756;SDS011;44527;47.460;19.016;2022-11-18T16:51:22;31.33;;;13.98;;
58756;SDS011;44527;47.460;19.016;2022-11-18T16:55:19;31.75;;;13.50;;
58756;SDS011;44527;47.460;19.016;2022-11-18T16:59:12;33.88;;;13.15;;
58756;SDS011;44527;47.460;19.016;2022-11-18T17:02:44;31.52;;;14.10;;
58756;SDS011;44527;47.460;19.016;2022-11-18T17:06:44;33.22;;;14.57;;
58756;SDS011;44527;47.460;19.016;2022-11-18T17:10:44;31.58;;;15.05;;
58756;SDS011;44527;47.460;19.016;2022-11-18T17:14:50;40.00;;;15.30;;
58756;SDS011;44527;47.460;19.016;2022-11-18T17:18:37;31.52;;;14.07;;
58756;SDS011;44527;47.460;19.016;2022-11-18T17:22:44;36.00;;;14.85;;
58756;SDS011;44527;47.460;19.016;2022-11-18T17:26:06;28.62;;;13.90;;
58756;SDS011;44527;47.460;19.016;2022-11-18T17:30:20;30.83;;;14.20;;
58756;SDS011;44527;47.460;19.016;2022-11-18T17:34:21;34.53;;;15.43;;
58756;SDS011;44527;47.460;19.016;2022-11-18T17:37:56;31.83;;;15.07;;
58756;SDS011;44527;47.460;19.016;2022-11-18T17:41:25;29.27;;;14.73;;
58756;SDS011;44527;47.460;19.016;2022-11-18T17:45:24;27.00;;;13.90;;
58756;SDS011;44527;47.460;19.016;2022-11-18T17:48:57;30.42;;;15.98;;
58756;SDS011;44527;47.460;19.016;2022-11-18T17:52:18;35.10;;;17.08;;
58756;SDS011;44527;47.460;19.016;2022-11-18T17:56:25;44.13;;;17.37;;
58756;SDS011;44527;47.460;19.016;2022-11-18T18:00:08;46.53;;;19.95;;
58756;SDS011;44527;47.460;19.016;2022-11-18T18:04:15;42.13;;;18.95;;
58756;SDS011;44527;47.460;19.016;2022-11-18T18:07:52;47.45;;;22.65;;
58756;SDS011;44527;47.460;19.016;2022-11-18T18:11:32;45.78;;;23.58;;
58756;SDS011;44527;47.460;19.016;2022-11-18T18:15:14;41.60;;;20.60;;
58756;SDS011;44527;47.460;19.016;2022-11-18T18:19:19;33.90;;;19.15;;
58756;SDS011;44527;47.460;19.016;2022-11-18T18:26:57;27.48;;;13.82;;
58756;SDS011;44527;47.460;19.016;2022-11-18T18:30:28;33.13;;;14.15;;
58756;SDS011;44527;47.460;19.016;2022-11-18T18:34:53;35.63;;;15.75;;
58756;SDS011;44527;47.460;19.016;2022-11-18T18:38:36;32.50;;;15.00;;
58756;SDS011;44527;47.460;19.016;2022-11-18T18:42:12;28.77;;;14.25;;
58756;SDS011;44527;47.460;19.016;2022-11-18T18:45:37;31.58;;;14.38;;
58756;SDS011;44527;47.460;19.016;2022-11-18T18:49:56;32.15;;;15.15;;
58756;SDS011;44527;47.460;19.016;2022-11-18T18:53:53;35.33;;;16.48;;
58756;SDS011;44527;47.460;19.016;2022-11-18T18:58:18;36.08;;;15.00;;
58756;SDS011;44527;47.460;19.016;2022-11-18T19:01:57;33.35;;;15.70;;
58756;SDS011;44527;47.460;19.016;2022-11-18T19:05:47;30.42;;;15.15;;
58756;SDS011;44527;47.460;19.016;2022-11-18T19:09:38;33.25;;;15.40;;
58756;SDS011;44527;47.460;19.016;2022-11-18T19:13:46;36.65;;;16.27;;
58756;SDS011;44527;47.460;19.016;2022-11-18T19:17:43;41.90;;;16.40;;
58756;SDS011;44527;47.460;19.016;2022-11-18T19:21:23;34.83;;;16.48;;
58756;SDS011;44527;47.460;19.016;2022-11-18T19:25:09;36.08;;;16.55;;
58756;SDS011;44527;47.460;19.016;2022-11-18T19:28:29;35.63;;;16.85;;
58756;SDS011;44527;47.460;19.016;2022-11-18T19:31:56;31.35;;;15.23;;
58756;SDS011;44527;47.460;19.016;2022-11-18T19:35:46;36.47;;;15.82;;
58756;SDS011;44527;47.460;19.016;2022-11-18T19:43:24;34.25;;;14.55;;
58756;SDS011;44527;47.460;19.016;2022-11-18T19:47:09;31.35;;;14.73;;
58756;SDS011;44527;47.460;19.016;2022-11-18T19:50:29;35.40;;;15.35;;
58756;SDS011;44527;47.460;19.016;2022-11-18T19:53:43;31.63;;;14.80;;
58756;SDS011;44527;47.460;19.016;2022-11-18T19:57:25;29.20;;;14.40;;
58756;SDS011;44527;47.460;19.016;2022-11-18T20:01:19;27.00;;;12.52;;
58756;SDS011;44527;47.460;19.016;2022-11-18T20:05:00;18.65;;;10.40;;
58756;SDS011;44527;47.460;19.016;2022-11-18T20:09:10;16.25;;;7.95;;
58756;SDS011;44527;47.460;19.016;2022-11-18T20:12:38;17.08;;;8.30;;
58756;SDS011;44527;47.460;19.016;2022-11-18T20:16:27;15.32;;;7.97;;
58756;SDS011;44527;47.460;19.016;2022-11-18T20:20:16;13.93;;;7.47;;
58756;SDS011;44527;47.460;19.016;2022-11-18T20:24:19;14.15;;;7.68;;
58756;SDS011;44527;47.460;19.016;2022-11-18T20:28:02;15.90;;;7.55;;
58756;SDS011;44527;47.460;19.016;2022-11-18T20:35:53;12.50;;;6.43;;
58756;SDS011;44527;47.460;19.016;2022-11-18T20:39:57;11.88;;;5.97;;
58756;SDS011;44527;47.460;19.016;2022-11-18T20:44:04;11.95;;;5.70;;
58756;SDS011;44527;47.460;19.016;2022-11-18T20:48:06;12.57;;;6.40;;
58756;SDS011;44527;47.460;19.016;2022-11-18T20:51:34;10.10;;;5.18;;
58756;SDS011;44527;47.460;19.016;2022-11-18T20:55:09;9.63;;;4.90;;
58756;SDS011;44527;47.460;19.016;2022-11-18T20:58:34;9.68;;;5.10;;
58756;SDS011;44527;47.460;19.016;2022-11-18T21:02:39;8.60;;;4.87;;
58756;SDS011;44527;47.460;19.016;2022-11-18T21:06:39;9.15;;;4.57;;
58756;SDS011;44527;47.460;19.016;2022-11-18T21:10:28;8.32;;;4.70;;
58756;SDS011;44527;47.460;19.016;2022-11-18T21:14:18;11.60;;;4.45;;
58756;SDS011;44527;47.460;19.016;2022-11-18T21:17:46;9.85;;;4.47;;